createdAt,value
2018-10-11T00:02:11.123Z,14.93
2018-10-11T00:04:23.346Z,16.70
2018-10-11T00:06:35.594Z,16.53
2018-10-11T00:08:47.763Z,16.53
2018-10-11T00:11:00.007Z,17.37
2018-10-11T00:13:12.267Z,17.80
2018-10-11T00:15:23.929Z,18.53
2018-10-11T00:17:36.126Z,16.50
2018-10-11T00:19:48.292Z,17.17
2018-10-11T00:22:00.485Z,17.80
2018-10-11T00:24:12.711Z,17.07
2018-10-11T00:26:24.918Z,17.33
2018-10-11T00:28:37.136Z,17.43
2018-10-11T00:30:49.356Z,17.60
2018-10-11T00:33:01.563Z,16.80
2018-10-11T00:35:13.810Z,16.67
2018-10-11T00:37:26.032Z,18.47
2018-10-11T00:39:38.250Z,16.70
2018-10-11T00:41:50.447Z,16.17
2018-10-11T00:44:02.702Z,16.37
2018-10-11T00:46:14.894Z,16.80
2018-10-11T00:48:27.139Z,17.47
2018-10-11T00:50:39.347Z,15.23
2018-10-11T00:52:51.523Z,16.17
2018-10-11T00:55:03.858Z,16.53
2018-10-11T00:57:16.056Z,16.00
2018-10-11T00:59:28.255Z,16.43
2018-10-11T01:01:41.015Z,15.73
2018-10-11T01:03:53.198Z,16.70
2018-10-11T01:06:05.472Z,17.07
2018-10-11T01:08:17.671Z,16.07
2018-10-11T01:10:29.865Z,17.27
2018-10-11T01:12:42.033Z,17.10
2018-10-11T01:14:54.264Z,17.10
2018-10-11T01:17:06.520Z,16.73
2018-10-11T01:19:18.797Z,17.27
2018-10-11T01:21:30.975Z,17.90
2018-10-11T01:23:43.261Z,16.83
2018-10-11T01:25:55.496Z,19.17
2018-10-11T01:28:07.739Z,18.03
2018-10-11T01:30:19.926Z,22.63
2018-10-11T01:32:32.128Z,19.50
2018-10-11T01:34:44.351Z,21.03
2018-10-11T01:36:56.554Z,21.67
2018-10-11T01:39:08.751Z,17.40
2018-10-11T01:41:21.295Z,16.90
2018-10-11T01:43:33.490Z,15.63
2018-10-11T01:45:45.748Z,15.40
2018-10-11T01:47:58.322Z,20.33
2018-10-11T01:50:10.524Z,22.17
2018-10-11T01:52:22.763Z,21.17
2018-10-11T01:54:34.957Z,22.87
2018-10-11T01:56:47.261Z,22.67
2018-10-11T01:58:59.464Z,21.63
2018-10-11T02:01:11.679Z,22.03
2018-10-11T02:03:23.879Z,22.33
2018-10-11T02:05:36.079Z,22.00
2018-10-11T02:07:48.331Z,21.70
2018-10-11T02:10:00.545Z,17.23
2018-10-11T02:12:12.753Z,16.60
2018-10-11T02:14:24.938Z,18.67
2018-10-11T02:16:37.123Z,17.63
2018-10-11T02:18:49.322Z,20.33
2018-10-11T02:21:01.525Z,20.60
2018-10-11T02:23:13.718Z,19.67
2018-10-11T02:25:26.035Z,19.83
2018-10-11T02:27:38.458Z,20.73
2018-10-11T02:29:50.714Z,20.80
2018-10-11T02:32:02.952Z,21.07
2018-10-11T02:34:15.088Z,20.20
2018-10-11T02:36:27.268Z,19.53
2018-10-11T02:38:39.515Z,20.93
2018-10-11T02:40:51.723Z,17.90
2018-10-11T02:43:03.911Z,20.93
2018-10-11T02:45:16.140Z,17.37
2018-10-11T02:47:28.316Z,16.83
2018-10-11T02:49:41.142Z,18.40
2018-10-11T02:51:53.346Z,18.37
2018-10-11T02:54:05.994Z,18.60
2018-10-11T02:56:19.259Z,18.57
2018-10-11T02:58:43.004Z,18.80
2018-10-11T03:00:55.279Z,19.43
2018-10-11T03:03:09.614Z,15.90
2018-10-11T03:05:21.851Z,14.93
2018-10-11T03:07:34.056Z,18.60
2018-10-11T03:09:47.099Z,20.33
2018-10-11T03:11:59.290Z,17.47
2018-10-11T03:14:11.471Z,18.10
2018-10-11T03:16:23.715Z,18.30
2018-10-11T03:18:35.955Z,18.90
2018-10-11T03:20:48.203Z,18.17
2018-10-11T03:23:00.411Z,19.00
2018-10-11T03:25:12.609Z,18.00
2018-10-11T03:27:24.811Z,19.23
2018-10-11T03:29:37.027Z,19.57
2018-10-11T03:31:49.190Z,20.40
2018-10-11T03:34:01.421Z,18.43
2018-10-11T03:36:13.607Z,19.37
2018-10-11T03:38:25.834Z,19.30
2018-10-11T03:40:38.016Z,18.43
2018-10-11T03:42:50.243Z,18.27
2018-10-11T03:45:02.484Z,18.73
2018-10-11T03:47:14.709Z,18.87
2018-10-11T03:49:26.902Z,17.53
2018-10-11T03:51:39.292Z,18.27
2018-10-11T03:53:51.526Z,18.07
2018-10-11T03:56:03.710Z,18.37
2018-10-11T03:58:15.908Z,17.13
2018-10-11T04:00:28.099Z,17.50
2018-10-11T04:02:40.379Z,19.13
2018-10-11T04:04:52.628Z,18.27
2018-10-11T04:07:04.843Z,19.53
2018-10-11T04:09:17.089Z,18.70
2018-10-11T04:11:29.278Z,18.50
2018-10-11T04:13:41.828Z,18.33
2018-10-11T04:15:54.063Z,16.40
2018-10-11T04:18:06.437Z,18.30
2018-10-11T04:20:18.645Z,14.83
2018-10-11T04:22:30.846Z,18.47
2018-10-11T04:24:43.046Z,19.47
2018-10-11T04:26:55.270Z,17.53
2018-10-11T04:29:07.528Z,18.33
2018-10-11T04:31:19.756Z,18.57
2018-10-11T04:33:31.947Z,15.87
2018-10-11T04:35:44.168Z,18.27
2018-10-11T04:37:56.352Z,17.27
2018-10-11T04:40:08.671Z,17.80
2018-10-11T04:42:20.886Z,18.93
2018-10-11T04:44:34.635Z,17.57
2018-10-11T04:46:46.893Z,17.27
2018-10-11T04:48:59.104Z,19.47
2018-10-11T04:51:11.350Z,17.87
2018-10-11T04:53:23.601Z,15.83
2018-10-11T04:55:35.830Z,15.20
2018-10-11T04:57:47.982Z,18.20
2018-10-11T05:00:00.226Z,14.57
2018-10-11T05:02:12.437Z,18.13
2018-10-11T05:04:24.676Z,18.10
2018-10-11T05:06:36.935Z,17.00
2018-10-11T05:08:49.175Z,17.40
2018-10-11T05:11:01.424Z,19.90
2018-10-11T05:13:14.136Z,22.00
2018-10-11T05:15:27.167Z,27.83
2018-10-11T05:17:39.940Z,19.27
2018-10-11T05:19:52.108Z,16.03
2018-10-11T05:22:04.348Z,17.10
2018-10-11T05:24:16.540Z,14.73
2018-10-11T05:26:28.754Z,15.67
2018-10-11T05:28:41.374Z,17.20
2018-10-11T05:30:53.673Z,15.40
2018-10-11T05:33:06.248Z,15.37
2018-10-11T05:35:18.411Z,17.30
2018-10-11T05:37:30.631Z,17.20
2018-10-11T05:39:42.909Z,17.20
2018-10-11T05:41:55.195Z,17.80
2018-10-11T05:44:07.469Z,18.07
2018-10-11T05:46:35.717Z,18.10
2018-10-11T05:48:48.037Z,17.60
2018-10-11T05:51:01.436Z,15.20
2018-10-11T05:53:13.785Z,15.17
2018-10-11T05:55:25.972Z,17.67
2018-10-11T05:57:38.224Z,17.57
2018-10-11T05:59:50.590Z,17.57
2018-10-11T06:02:02.862Z,16.77
2018-10-11T06:04:15.172Z,16.00
2018-10-11T06:06:27.287Z,16.77
2018-10-11T06:08:39.603Z,16.67
2018-10-11T06:10:51.925Z,16.07
2018-10-11T06:13:05.164Z,16.37
2018-10-11T06:15:17.445Z,15.97
2018-10-11T06:17:29.695Z,16.37
2018-10-11T06:19:41.979Z,16.07
2018-10-11T06:21:54.366Z,15.57
2018-10-11T06:24:06.627Z,16.00
2018-10-11T06:26:18.929Z,16.60
2018-10-11T06:28:31.128Z,15.80
2018-10-11T06:30:43.434Z,16.17
2018-10-11T06:32:55.762Z,16.57
2018-10-11T06:35:08.056Z,15.93
2018-10-11T06:37:20.335Z,15.00
2018-10-11T06:39:32.660Z,15.97
2018-10-11T06:41:44.897Z,16.77
2018-10-11T06:43:58.102Z,16.00
2018-10-11T06:46:10.459Z,13.27
2018-10-11T06:48:22.760Z,15.20
2018-10-11T06:50:35.020Z,18.67
2018-10-11T06:52:47.263Z,18.20
2018-10-11T06:54:59.522Z,17.53
2018-10-11T06:57:11.736Z,18.43
2018-10-11T06:59:25.987Z,19.57
2018-10-11T07:01:38.261Z,19.27
2018-10-11T07:03:50.567Z,19.43
2018-10-11T07:06:02.770Z,18.87
2018-10-11T07:08:15.037Z,18.60
2018-10-11T07:10:27.235Z,19.17
2018-10-11T07:12:40.368Z,17.27
2018-10-11T07:14:52.591Z,19.20
2018-10-11T07:17:04.834Z,20.77
2018-10-11T07:19:23.108Z,18.67
2018-10-11T07:21:36.199Z,19.00
2018-10-11T07:23:48.467Z,18.27
2018-10-11T07:26:00.743Z,16.30
2018-10-11T07:28:12.888Z,17.77
2018-10-11T07:30:25.112Z,19.63
2018-10-11T07:32:37.362Z,19.57
2018-10-11T07:34:49.707Z,20.37
2018-10-11T07:37:01.844Z,18.47
2018-10-11T07:39:14.068Z,19.43
2018-10-11T07:41:26.262Z,18.80
2018-10-11T07:43:38.523Z,20.83
2018-10-11T07:45:50.793Z,18.30
2018-10-11T07:48:03.063Z,20.10
2018-10-11T07:50:15.255Z,19.00
2018-10-11T07:52:27.459Z,18.53
2018-10-11T07:54:39.678Z,18.57
2018-10-11T07:56:51.918Z,18.13
2018-10-11T07:59:04.151Z,20.17
2018-10-11T08:01:16.365Z,20.03
2018-10-11T08:03:28.605Z,20.00
2018-10-11T08:05:40.841Z,19.17
2018-10-11T08:07:53.047Z,19.87
2018-10-11T08:10:06.493Z,20.10
2018-10-11T08:12:18.681Z,20.50
2018-10-11T08:14:30.899Z,20.20
2018-10-11T08:16:43.162Z,20.77
2018-10-11T08:18:55.569Z,19.80
2018-10-11T08:21:11.695Z,19.83
2018-10-11T08:23:27.935Z,21.23
2018-10-11T08:25:40.429Z,21.53
2018-10-11T08:27:52.372Z,21.27
2018-10-11T08:30:04.958Z,20.67
2018-10-11T08:32:17.284Z,20.67
2018-10-11T08:34:29.487Z,21.83
2018-10-11T08:36:41.731Z,21.50
2018-10-11T08:38:53.988Z,20.13
2018-10-11T08:41:06.381Z,19.87
2018-10-11T08:43:18.730Z,17.10
2018-10-11T08:45:30.951Z,18.97
2018-10-11T08:47:43.151Z,18.27
2018-10-11T08:49:55.365Z,17.40
2018-10-11T08:52:07.632Z,17.77
2018-10-11T08:54:25.414Z,18.57
2018-10-11T08:56:37.623Z,19.23
2018-10-11T08:58:49.839Z,17.97
2018-10-11T09:01:02.111Z,17.30
2018-10-11T09:03:14.439Z,17.13
2018-10-11T09:05:26.608Z,17.00
2018-10-11T09:07:38.812Z,17.67
2018-10-11T09:09:53.685Z,18.13
2018-10-11T09:12:03.260Z,17.53
2018-10-11T09:14:15.508Z,16.67
2018-10-11T09:16:27.716Z,16.20
2018-10-11T09:18:39.984Z,16.47
2018-10-11T09:20:52.184Z,15.60
2018-10-11T09:23:04.683Z,17.73
2018-10-11T09:25:16.863Z,17.50
2018-10-11T09:27:29.114Z,16.33
2018-10-11T09:29:41.379Z,14.93
2018-10-11T09:31:53.627Z,15.83
2018-10-11T09:34:06.865Z,14.47
2018-10-11T09:36:19.096Z,13.70
2018-10-11T09:38:31.355Z,14.77
2018-10-11T09:40:43.591Z,13.67
2018-10-11T09:42:55.835Z,13.97
2018-10-11T09:45:08.031Z,13.33
2018-10-11T09:47:20.239Z,12.93
2018-10-11T09:49:32.494Z,13.47
2018-10-11T09:51:45.642Z,12.90
2018-10-11T09:53:57.862Z,12.20
2018-10-11T09:56:10.083Z,12.47
2018-10-11T09:58:22.313Z,12.03
2018-10-11T10:00:40.260Z,12.50
2018-10-11T10:02:52.745Z,11.17
2018-10-11T10:05:05.038Z,11.83
2018-10-11T10:07:17.250Z,12.33
2018-10-11T10:09:29.490Z,11.60
2018-10-11T10:11:41.691Z,12.63
2018-10-11T10:13:53.875Z,12.40
2018-10-11T10:16:06.092Z,12.87
2018-10-11T10:18:18.360Z,11.83
2018-10-11T10:20:34.293Z,11.17
2018-10-11T10:22:46.511Z,11.27
2018-10-11T10:24:58.710Z,11.90
2018-10-11T10:27:11.025Z,11.33
2018-10-11T10:29:23.173Z,11.20
2018-10-11T10:31:35.414Z,10.97
2018-10-11T10:33:47.619Z,12.43
2018-10-11T10:35:59.870Z,12.40
2018-10-11T10:38:12.079Z,11.10
2018-10-11T10:40:24.355Z,12.70
2018-10-11T10:42:40.355Z,11.87
2018-10-11T10:44:52.607Z,11.67
2018-10-11T10:47:04.875Z,12.10
2018-10-11T10:49:17.084Z,13.03
2018-10-11T10:51:29.476Z,11.57
2018-10-11T10:53:41.766Z,12.70
2018-10-11T10:55:53.979Z,13.10
2018-10-11T10:58:06.521Z,12.63
2018-10-11T11:00:18.805Z,10.70
2018-10-11T11:02:31.052Z,10.40
2018-10-11T11:04:43.268Z,9.87
2018-10-11T11:06:55.491Z,10.30
2018-10-11T11:09:09.967Z,10.00
2018-10-11T11:11:22.234Z,9.43
2018-10-11T11:13:34.646Z,9.53
2018-10-11T11:15:46.897Z,8.53
2018-10-11T11:17:59.114Z,9.40
2018-10-11T11:20:11.315Z,8.97
2018-10-11T11:22:23.540Z,9.10
2018-10-11T11:24:35.822Z,9.33
2018-10-11T11:26:48.111Z,10.90
2018-10-11T11:29:00.683Z,9.47
2018-10-11T11:31:12.972Z,10.63
2018-10-11T11:33:25.184Z,8.83
2018-10-11T11:35:37.431Z,9.90
2018-10-11T11:37:49.603Z,9.27
2018-10-11T11:40:01.876Z,8.83
2018-10-11T11:42:14.088Z,10.03
2018-10-11T11:44:26.265Z,10.27
2018-10-11T11:46:38.559Z,9.70
2018-10-11T11:48:54.837Z,10.40
2018-10-11T11:51:07.541Z,7.63
2018-10-11T11:53:19.747Z,8.60
2018-10-11T11:55:33.896Z,8.70
2018-10-11T11:57:46.126Z,10.07
2018-10-11T11:59:58.342Z,9.83
2018-10-11T12:02:10.677Z,8.40
2018-10-11T12:04:22.903Z,7.87
2018-10-11T12:06:35.170Z,9.27
2018-10-11T12:08:47.389Z,9.27
2018-10-11T12:10:59.827Z,9.63
2018-10-11T12:13:12.421Z,10.27
2018-10-11T12:15:25.919Z,8.87
2018-10-11T12:17:38.129Z,8.50
2018-10-11T12:19:50.366Z,9.73
2018-10-11T12:22:02.690Z,9.47
2018-10-11T12:24:14.871Z,8.87
2018-10-11T12:26:27.110Z,9.83
2018-10-11T12:28:39.399Z,8.50
2018-10-11T12:30:51.563Z,7.70
2018-10-11T12:33:03.819Z,7.77
2018-10-11T12:35:17.564Z,7.03
2018-10-11T12:37:29.794Z,7.97
2018-10-11T12:39:41.992Z,8.10
2018-10-11T12:41:54.228Z,7.20
2018-10-11T12:44:06.456Z,7.27
2018-10-11T12:46:20.545Z,6.10
2018-10-11T12:48:32.801Z,7.53
2018-10-11T12:50:45.063Z,6.80
2018-10-11T12:52:57.443Z,7.43
2018-10-11T12:55:09.892Z,7.43
2018-10-11T12:57:22.590Z,7.03
2018-10-11T12:59:34.765Z,7.17
2018-10-11T13:01:46.951Z,6.23
2018-10-11T13:03:59.159Z,7.37
2018-10-11T13:06:11.451Z,5.47
2018-10-11T13:08:24.516Z,6.83
2018-10-11T13:10:36.721Z,7.17
2018-10-11T13:12:48.986Z,6.63
2018-10-11T13:15:01.325Z,6.90
2018-10-11T13:17:13.465Z,6.50
2018-10-11T13:19:27.580Z,6.17
2018-10-11T13:21:39.847Z,6.10
2018-10-11T13:23:52.092Z,5.83
2018-10-11T13:26:04.320Z,6.50
2018-10-11T13:28:17.624Z,5.73
2018-10-11T13:30:29.926Z,6.03
2018-10-11T13:32:42.162Z,6.10
2018-10-11T13:34:58.345Z,5.83
2018-10-11T13:37:10.572Z,6.63
2018-10-11T13:39:22.820Z,5.60
2018-10-11T13:41:35.213Z,6.77
2018-10-11T13:43:47.331Z,6.80
2018-10-11T13:46:01.976Z,7.10
2018-10-11T13:48:11.828Z,5.20
2018-10-11T13:50:24.017Z,6.87
2018-10-11T13:52:36.280Z,6.97
2018-10-11T13:54:48.489Z,7.10
2018-10-11T13:57:02.894Z,7.60
2018-10-11T13:59:15.183Z,6.23
2018-10-11T14:01:25.643Z,6.43
2018-10-11T14:03:37.899Z,6.77
2018-10-11T14:05:50.145Z,6.43
2018-10-11T14:08:02.375Z,6.23
2018-10-11T14:10:14.711Z,6.87
2018-10-11T14:12:27.035Z,6.70
2018-10-11T14:14:39.251Z,7.40
2018-10-11T14:16:51.479Z,7.00
2018-10-11T14:19:03.763Z,5.90
2018-10-11T14:21:16.028Z,5.80
2018-10-11T14:23:28.293Z,5.47
2018-10-11T14:25:40.544Z,5.47
2018-10-11T14:27:52.888Z,5.37
2018-10-11T14:30:05.137Z,5.93
2018-10-11T14:32:17.408Z,5.63
2018-10-11T14:34:29.644Z,6.97
2018-10-11T14:36:43.876Z,6.73
2018-10-11T14:38:58.063Z,6.40
2018-10-11T14:41:10.367Z,6.57
2018-10-11T14:43:22.652Z,6.93
2018-10-11T14:45:34.848Z,6.90
2018-10-11T14:47:47.089Z,6.20
2018-10-11T14:49:59.330Z,5.73
2018-10-11T14:52:11.596Z,6.50
2018-10-11T14:54:23.829Z,5.53
2018-10-11T14:56:36.063Z,5.63
2018-10-11T14:58:48.340Z,5.90
2018-10-11T15:01:00.596Z,6.70
2018-10-11T15:03:12.888Z,5.80
2018-10-11T15:05:25.107Z,5.80
2018-10-11T15:07:37.351Z,6.13
2018-10-11T15:09:49.622Z,6.10
2018-10-11T15:12:01.830Z,5.77
2018-10-11T15:14:14.039Z,5.03
2018-10-11T15:16:26.217Z,4.47
2018-10-11T15:18:38.467Z,4.33
2018-10-11T15:20:50.716Z,4.67
2018-10-11T15:23:03.014Z,4.60
2018-10-11T15:25:15.286Z,3.57
2018-10-11T15:27:27.539Z,5.50
2018-10-11T15:29:39.808Z,4.50
2018-10-11T15:31:52.062Z,5.03
2018-10-11T15:34:04.297Z,4.50
2018-10-11T15:36:16.547Z,5.80
2018-10-11T15:38:28.951Z,5.80
2018-10-11T15:40:41.230Z,6.17
2018-10-11T15:42:53.479Z,5.20
2018-10-11T15:45:07.111Z,5.30
2018-10-11T15:47:19.391Z,5.17
2018-10-11T15:49:31.664Z,6.47
2018-10-11T15:51:43.937Z,5.87
2018-10-11T15:53:56.193Z,5.80
2018-10-11T15:56:08.478Z,5.77
2018-10-11T15:58:20.753Z,5.90
2018-10-11T16:00:32.982Z,5.30
2018-10-11T16:02:45.275Z,6.27
2018-10-11T16:04:57.548Z,7.13
2018-10-11T16:07:09.836Z,6.37
2018-10-11T16:09:22.222Z,6.60
2018-10-11T16:11:34.431Z,6.90
2018-10-11T16:13:46.695Z,7.07
2018-10-11T16:15:58.931Z,7.50
2018-10-11T16:18:11.204Z,6.90
2018-10-11T16:20:23.402Z,7.40
2018-10-11T16:22:35.667Z,6.40
2018-10-11T16:24:48.185Z,6.70
2018-10-11T16:27:00.386Z,7.17
2018-10-11T16:29:13.570Z,7.03
2018-10-11T16:31:25.841Z,7.70
2018-10-11T16:33:38.116Z,6.60
2018-10-11T16:35:50.353Z,7.00
2018-10-11T16:38:02.612Z,7.07
2018-10-11T16:40:14.902Z,9.23
2018-10-11T16:42:27.183Z,9.63
2018-10-11T16:44:39.449Z,8.23
2018-10-11T16:46:51.659Z,9.33
2018-10-11T16:49:03.919Z,9.17
2018-10-11T16:51:16.162Z,8.57
2018-10-11T16:53:28.485Z,8.67
2018-10-11T16:55:41.685Z,7.90
2018-10-11T16:57:53.983Z,8.47
2018-10-11T17:00:06.358Z,8.50
2018-10-11T17:02:18.604Z,8.33
2018-10-11T17:04:30.895Z,7.20
2018-10-11T17:06:43.144Z,7.83
2018-10-11T17:08:55.356Z,7.70
2018-10-11T17:11:07.724Z,7.93
2018-10-11T17:13:19.951Z,7.80
2018-10-11T17:15:32.203Z,8.40
2018-10-11T17:17:44.443Z,8.07
2018-10-11T17:19:56.652Z,8.27
2018-10-11T17:22:10.861Z,7.23
2018-10-11T17:24:23.166Z,8.83
2018-10-11T17:26:35.444Z,7.57
2018-10-11T17:28:47.699Z,7.27
2018-10-11T17:30:59.931Z,7.23
2018-10-11T17:33:12.187Z,8.20
2018-10-11T17:35:24.403Z,7.60
2018-10-11T17:37:36.693Z,7.23
2018-10-11T17:39:48.952Z,7.70
2018-10-11T17:42:01.237Z,8.10
2018-10-11T17:44:13.433Z,6.90
2018-10-11T17:46:25.677Z,7.00
2018-10-11T17:48:38.182Z,7.03
2018-10-11T17:50:50.484Z,6.00
2018-10-11T17:53:02.710Z,7.07
2018-10-11T17:55:15.008Z,6.80
2018-10-11T17:57:27.369Z,6.00
2018-10-11T17:59:39.592Z,6.20
2018-10-11T18:01:51.908Z,7.30
2018-10-11T18:04:04.183Z,7.40
2018-10-11T18:06:16.497Z,7.00
2018-10-11T18:08:28.805Z,7.00
2018-10-11T18:10:41.014Z,7.87
2018-10-11T18:12:53.301Z,7.10
2018-10-11T18:15:06.016Z,6.70
2018-10-11T18:17:18.293Z,6.97
2018-10-11T18:19:30.604Z,7.53
2018-10-11T18:21:43.907Z,7.70
2018-10-11T18:23:56.170Z,7.70
2018-10-11T18:26:08.579Z,7.50
2018-10-11T18:28:20.820Z,6.93
2018-10-11T18:30:33.123Z,6.17
2018-10-11T18:32:45.356Z,7.17
2018-10-11T18:34:57.624Z,7.87
2018-10-11T18:37:09.786Z,7.57
2018-10-11T18:39:22.069Z,8.13
2018-10-11T18:41:34.426Z,7.93
2018-10-11T18:43:46.814Z,7.80
2018-10-11T18:45:59.101Z,8.33
2018-10-11T18:48:11.327Z,9.20
2018-10-11T18:50:23.631Z,8.80
2018-10-11T18:52:35.905Z,8.10
2018-10-11T18:54:48.293Z,9.10
2018-10-11T18:57:00.562Z,8.73
2018-10-11T18:59:12.768Z,9.23
2018-10-11T19:01:25.104Z,8.43
2018-10-11T19:03:44.292Z,10.30
2018-10-11T19:05:56.635Z,8.03
2018-10-11T19:08:08.963Z,9.33
2018-10-11T19:10:21.207Z,8.60
2018-10-11T19:12:33.521Z,7.60
2018-10-11T19:14:45.806Z,8.17
2018-10-11T19:16:58.136Z,7.80
2018-10-11T19:19:10.390Z,8.23
2018-10-11T19:21:22.720Z,9.17
2018-10-11T19:23:35.176Z,9.33
2018-10-11T19:25:48.419Z,7.60
2018-10-11T19:28:00.695Z,8.33
2018-10-11T19:30:12.973Z,7.30
2018-10-11T19:32:25.313Z,7.23
2018-10-11T19:34:37.603Z,8.50
2018-10-11T19:36:49.866Z,8.20
2018-10-11T19:39:02.251Z,9.50
2018-10-11T19:41:14.645Z,11.03
2018-10-11T19:43:26.942Z,9.30
2018-10-11T19:45:39.563Z,8.70
2018-10-11T19:47:51.820Z,8.87
2018-10-11T19:50:04.163Z,9.87
2018-10-11T19:52:16.455Z,9.67
2018-10-11T19:54:28.737Z,9.30
2018-10-11T19:56:41.018Z,10.30
2018-10-11T19:58:53.292Z,8.60
2018-10-11T20:01:05.529Z,9.40
2018-10-11T20:03:17.810Z,8.70
2018-10-11T20:05:30.188Z,9.00
2018-10-11T20:07:42.455Z,7.07
2018-10-11T20:09:54.767Z,7.73
2018-10-11T20:12:07.023Z,9.60
2018-10-11T20:14:19.316Z,9.10
2018-10-11T20:16:31.537Z,9.83
2018-10-11T20:18:43.791Z,8.63
2018-10-11T20:20:56.031Z,9.03
2018-10-11T20:23:08.207Z,9.03
2018-10-11T20:25:20.443Z,9.53
2018-10-11T20:27:32.647Z,8.53
2018-10-11T20:29:44.892Z,10.00
2018-10-11T20:31:57.164Z,8.93
2018-10-11T20:34:09.524Z,8.30
2018-10-11T20:36:21.814Z,9.90
2018-10-11T20:38:34.076Z,9.23
2018-10-11T20:40:46.280Z,8.70
2018-10-11T20:42:58.537Z,9.57
2018-10-11T20:45:10.822Z,10.17
2018-10-11T20:47:23.086Z,10.83
2018-10-11T20:49:35.316Z,9.37
2018-10-11T20:51:47.575Z,9.73
2018-10-11T20:53:59.811Z,9.53
2018-10-11T20:56:12.082Z,9.77
2018-10-11T20:58:24.318Z,9.80
2018-10-11T21:00:36.598Z,9.63
2018-10-11T21:02:48.803Z,9.77
2018-10-11T21:05:01.007Z,9.37
2018-10-11T21:07:13.264Z,9.37
2018-10-11T21:09:25.593Z,8.37
2018-10-11T21:11:37.870Z,9.37
2018-10-11T21:13:50.085Z,8.80
2018-10-11T21:16:02.284Z,9.70
2018-10-11T21:18:14.554Z,9.33
2018-10-11T21:20:26.964Z,9.03
2018-10-11T21:22:39.106Z,10.10
2018-10-11T21:24:51.358Z,10.40
2018-10-11T21:27:03.659Z,8.33
2018-10-11T21:29:15.936Z,9.97
2018-10-11T21:31:28.205Z,8.80
2018-10-11T21:33:40.465Z,9.27
2018-10-11T21:35:52.731Z,9.73
2018-10-11T21:38:05.449Z,8.17
2018-10-11T21:40:17.734Z,9.47
2018-10-11T21:42:29.890Z,9.17
2018-10-11T21:44:42.108Z,8.80
2018-10-11T21:46:54.367Z,9.73
2018-10-11T21:49:06.620Z,10.33
2018-10-11T21:51:18.815Z,9.60
2018-10-11T21:53:31.150Z,8.30
2018-10-11T21:55:43.383Z,9.57
2018-10-11T21:57:55.772Z,9.47
2018-10-11T22:00:08.090Z,9.53
2018-10-11T22:02:20.275Z,9.80
2018-10-11T22:04:32.512Z,9.40
2018-10-11T22:06:44.778Z,9.37
2018-10-11T22:08:56.956Z,9.07
2018-10-11T22:11:09.728Z,9.77
2018-10-11T22:13:21.977Z,9.23
2018-10-11T22:15:34.223Z,9.20
2018-10-11T22:17:46.453Z,9.40
2018-10-11T22:19:58.721Z,9.17
2018-10-11T22:22:11.031Z,8.47
2018-10-11T22:24:23.347Z,9.33
2018-10-11T22:26:35.667Z,9.50
2018-10-11T22:28:47.926Z,8.40
2018-10-11T22:31:00.151Z,9.07
2018-10-11T22:33:12.381Z,9.03
2018-10-11T22:35:24.623Z,9.57
2018-10-11T22:37:36.859Z,9.00
2018-10-11T22:39:49.107Z,9.63
2018-10-11T22:42:01.336Z,8.53
2018-10-11T22:44:13.607Z,8.57
2018-10-11T22:46:25.897Z,8.73
2018-10-11T22:48:38.128Z,8.73
2018-10-11T22:50:50.368Z,8.60
2018-10-11T22:53:02.602Z,9.43
2018-10-11T22:55:14.839Z,9.00
2018-10-11T22:57:27.092Z,8.57
2018-10-11T22:59:39.443Z,8.70
2018-10-11T23:01:51.700Z,7.93
2018-10-11T23:04:03.948Z,8.23
2018-10-11T23:06:16.220Z,7.43
2018-10-11T23:08:28.513Z,8.60
2018-10-11T23:10:40.748Z,8.70
2018-10-11T23:12:52.960Z,8.40
2018-10-11T23:15:05.281Z,8.07
2018-10-11T23:17:17.528Z,6.90
2018-10-11T23:19:29.771Z,7.97
2018-10-11T23:21:42.011Z,7.07
2018-10-11T23:23:54.218Z,7.17
2018-10-11T23:26:06.546Z,7.47
2018-10-11T23:28:18.763Z,7.73
2018-10-11T23:30:30.954Z,7.97
2018-10-11T23:32:43.197Z,7.20
2018-10-11T23:34:55.386Z,8.00
2018-10-11T23:37:07.931Z,7.57
2018-10-11T23:39:20.168Z,7.93
2018-10-11T23:41:32.429Z,8.43
2018-10-11T23:43:44.669Z,8.07
2018-10-11T23:45:56.900Z,7.70
2018-10-11T23:48:09.072Z,8.17
2018-10-11T23:50:21.312Z,6.20
2018-10-11T23:52:33.514Z,7.93
2018-10-11T23:54:45.741Z,7.93
2018-10-11T23:56:57.968Z,8.10
2018-10-11T23:59:10.166Z,8.30
